Schwabisch Hall Army Air Field, Germany

4:33 PM CEST on September 04, 2015 (GMT +0200)
Hessental | | Change Station
CLOSE
Current Station
Airport
Location: Schwaebisch Hall,
Elevation: 1309 ft
Nearby Weather Stations

Elev 1309 ft 49.12 °N, 9.78 °E | Updated 13 minutes ago

Clear
Clear
63 °F
Feels Like 63 °F
N
10
Wind Variable Wind from West

Today
High -- | Low -- °F
--% Chance of Precip.
Yesterday
High -- | Low -- °F
Precip. -- in
6:40 AM 7:58 PM
Waning Gibbous, 59% visible
Pressure 30.01 in
Visibility -9999.0 miles
Clouds
Dew Point 39 °F
Humidity 42%
Rainfall 0.00 in
Snow Depth Not available.
UV Not available.
Pollen Not available.
Air Quality Not available.
Flu Activity Not available.
METAR EDTY 041420Z 28009KT 250V320 CAVOK 17/04 Q1016
Pressure 30.01 in
Visibility -9999.0 miles
Clouds
Dew Point 39 °F
Humidity 42%
Rainfall 0.00 in
Snow Depth Not available.
UV Not available.
Pollen Not available.
Air Quality Not available.
Flu Activity Not available.
METAR EDTY 041420Z 28009KT 250V320 CAVOK 17/04 Q1016

10-Day Weather Forecast

×

Almanac

Astronomy

Sep. 04, 2015 Rise Set
Actual Time
Civil Twilight
Nautical Twilight
Astronomical Twilight
Moon
Length of Visible Light
Length of Day
Tomorrow will be .
, % of the Moon is Illuminated

Today's Extremes

Country Highs Country Lows

Community

WunderPhotos

Upload Photos

1,852,186 photos uploaded!

WunderBlogs® & News

Nearby

Air Quality

  Air Quality AQ Index Pollutant
Not available.

Snow Depth

Station Depth Elevation

Earthquake Activity

City Distance Mag. Time & Date
Minimum magnitude displayed is 2.5.

Coastal Water Temperatures

Place Temperature

Stations

Nearby Weather Stations

Station Location Temp. Windchill Dew Point Humidity Wind Precip. Elev Updated Type